sensor_id;sensor_type;location;lat;lon;timestamp;pressure;altitude;pressure_sealevel;temperature;humidity
70930;BME280;58588;48.102;19.682;2023-04-19T00:02:07;99420.22;;;9.78;89.11
70930;BME280;58588;48.102;19.682;2023-04-19T00:05:10;99413.41;;;9.67;92.90
70930;BME280;58588;48.102;19.682;2023-04-19T00:08:13;99407.63;;;9.55;94.20
70930;BME280;58588;48.102;19.682;2023-04-19T00:11:15;99409.31;;;9.33;100.00
70930;BME280;58588;48.102;19.682;2023-04-19T00:14:17;99407.72;;;9.24;100.00
70930;BME280;58588;48.102;19.682;2023-04-19T00:17:48;99406.16;;;9.30;100.00
70930;BME280;58588;48.102;19.682;2023-04-19T00:20:52;99403.09;;;9.33;99.41
70930;BME280;58588;48.102;19.682;2023-04-19T00:23:54;99394.38;;;9.31;100.00
70930;BME280;58588;48.102;19.682;2023-04-19T00:26:56;99393.88;;;9.27;98.76
70930;BME280;58588;48.102;19.682;2023-04-19T00:29:59;99388.81;;;9.32;96.23
70930;BME280;58588;48.102;19.682;2023-04-19T00:33:02;99393.25;;;9.25;100.00
70930;BME280;58588;48.102;19.682;2023-04-19T00:36:06;99380.97;;;9.23;100.00
70930;BME280;58588;48.102;19.682;2023-04-19T00:39:08;99380.44;;;9.04;100.00
70930;BME280;58588;48.102;19.682;2023-04-19T00:42:10;99375.78;;;8.98;100.00
70930;BME280;58588;48.102;19.682;2023-04-19T00:45:12;99380.38;;;8.90;100.00
70930;BME280;58588;48.102;19.682;2023-04-19T00:48:14;99379.22;;;8.84;100.00
70930;BME280;58588;48.102;19.682;2023-04-19T00:51:19;99370.25;;;8.69;100.00
70930;BME280;58588;48.102;19.682;2023-04-19T00:54:22;99369.50;;;8.52;100.00
70930;BME280;58588;48.102;19.682;2023-04-19T00:57:24;99370.94;;;8.63;100.00
70930;BME280;58588;48.102;19.682;2023-04-19T01:00:26;99365.19;;;8.74;100.00
70930;BME280;58588;48.102;19.682;2023-04-19T01:03:28;99365.47;;;8.79;100.00
70930;BME280;58588;48.102;19.682;2023-04-19T01:06:32;99360.91;;;8.88;100.00
70930;BME280;58588;48.102;19.682;2023-04-19T01:09:39;99358.88;;;8.90;100.00
70930;BME280;58588;48.102;19.682;2023-04-19T01:12:41;99351.94;;;8.95;100.00
70930;BME280;58588;48.102;19.682;2023-04-19T01:15:43;99349.06;;;8.97;100.00
70930;BME280;58588;48.102;19.682;2023-04-19T01:18:45;99345.63;;;8.88;100.00
70930;BME280;58588;48.102;19.682;2023-04-19T01:21:49;99345.19;;;8.76;100.00
70930;BME280;58588;48.102;19.682;2023-04-19T01:24:53;99339.72;;;8.62;100.00
70930;BME280;58588;48.102;19.682;2023-04-19T01:27:55;99346.63;;;8.56;100.00
70930;BME280;58588;48.102;19.682;2023-04-19T01:30:57;99341.53;;;8.38;100.00
70930;BME280;58588;48.102;19.682;2023-04-19T01:34:00;99336.00;;;8.40;100.00
70930;BME280;58588;48.102;19.682;2023-04-19T01:37:02;99333.97;;;8.42;100.00
70930;BME280;58588;48.102;19.682;2023-04-19T01:40:06;99336.84;;;8.40;100.00
70930;BME280;58588;48.102;19.682;2023-04-19T01:43:11;99333.81;;;8.35;100.00
70930;BME280;58588;48.102;19.682;2023-04-19T01:46:13;99327.16;;;8.23;100.00
70930;BME280;58588;48.102;19.682;2023-04-19T01:49:15;99326.84;;;8.18;100.00
70930;BME280;58588;48.102;19.682;2023-04-19T01:52:17;99326.00;;;8.17;100.00
70930;BME280;58588;48.102;19.682;2023-04-19T01:55:20;99327.16;;;8.15;100.00
70930;BME280;58588;48.102;19.682;2023-04-19T01:58:22;99321.34;;;8.03;100.00
70930;BME280;58588;48.102;19.682;2023-04-19T02:01:24;99316.41;;;7.75;100.00
70930;BME280;58588;48.102;19.682;2023-04-19T02:04:45;99316.28;;;7.61;100.00
70930;BME280;58588;48.102;19.682;2023-04-19T02:07:47;99325.69;;;7.57;100.00
70930;BME280;58588;48.102;19.682;2023-04-19T02:10:51;99316.13;;;7.54;100.00
70930;BME280;58588;48.102;19.682;2023-04-19T02:13:53;99313.94;;;7.49;100.00
70930;BME280;58588;48.102;19.682;2023-04-19T02:16:55;99308.44;;;7.43;100.00
70930;BME280;58588;48.102;19.682;2023-04-19T02:19:57;99297.69;;;7.43;100.00
70930;BME280;58588;48.102;19.682;2023-04-19T02:22:59;99301.91;;;7.45;100.00
70930;BME280;58588;48.102;19.682;2023-04-19T02:26:02;99303.41;;;7.40;100.00
70930;BME280;58588;48.102;19.682;2023-04-19T02:29:04;99303.09;;;7.35;100.00
70930;BME280;58588;48.102;19.682;2023-04-19T02:32:06;99296.91;;;7.34;100.00
70930;BME280;58588;48.102;19.682;2023-04-19T02:35:08;99295.88;;;7.19;100.00
70930;BME280;58588;48.102;19.682;2023-04-19T02:38:10;99289.34;;;7.13;100.00
70930;BME280;58588;48.102;19.682;2023-04-19T02:41:14;99298.75;;;7.09;100.00
70930;BME280;58588;48.102;19.682;2023-04-19T02:44:16;99295.25;;;7.09;100.00
70930;BME280;58588;48.102;19.682;2023-04-19T02:47:18;99294.91;;;7.04;100.00
70930;BME280;58588;48.102;19.682;2023-04-19T02:50:20;99292.06;;;7.05;100.00
70930;BME280;58588;48.102;19.682;2023-04-19T02:53:22;99286.69;;;6.89;100.00
70930;BME280;58588;48.102;19.682;2023-04-19T02:56:26;99293.72;;;6.74;100.00
70930;BME280;58588;48.102;19.682;2023-04-19T02:59:28;99297.09;;;6.67;100.00
70930;BME280;58588;48.102;19.682;2023-04-19T03:02:30;99290.38;;;6.55;100.00
70930;BME280;58588;48.102;19.682;2023-04-19T03:05:32;99293.34;;;6.44;100.00
70930;BME280;58588;48.102;19.682;2023-04-19T03:08:34;99284.63;;;6.34;100.00
70930;BME280;58588;48.102;19.682;2023-04-19T03:11:38;99279.25;;;6.26;100.00
70930;BME280;58588;48.102;19.682;2023-04-19T03:14:40;99274.41;;;6.29;100.00
70930;BME280;58588;48.102;19.682;2023-04-19T03:17:42;99271.72;;;6.29;100.00
70930;BME280;58588;48.102;19.682;2023-04-19T03:20:44;99265.06;;;6.33;100.00
70930;BME280;58588;48.102;19.682;2023-04-19T03:23:46;99272.72;;;6.20;100.00
70930;BME280;58588;48.102;19.682;2023-04-19T03:26:49;99271.66;;;5.97;100.00
70930;BME280;58588;48.102;19.682;2023-04-19T03:29:51;99265.41;;;5.88;100.00
70930;BME280;58588;48.102;19.682;2023-04-19T03:32:53;99265.06;;;5.83;100.00
70930;BME280;58588;48.102;19.682;2023-04-19T03:35:56;99264.53;;;5.87;100.00
70930;BME280;58588;48.102;19.682;2023-04-19T03:38:58;99261.00;;;5.71;100.00
70930;BME280;58588;48.102;19.682;2023-04-19T03:42:01;99262.06;;;5.52;100.00
70930;BME280;58588;48.102;19.682;2023-04-19T03:45:04;99256.84;;;5.42;100.00
70930;BME280;58588;48.102;19.682;2023-04-19T03:48:06;99259.03;;;5.47;100.00
70930;BME280;58588;48.102;19.682;2023-04-19T03:51:08;99255.66;;;5.45;100.00
70930;BME280;58588;48.102;19.682;2023-04-19T03:54:10;99253.34;;;5.50;100.00
70930;BME280;58588;48.102;19.682;2023-04-19T03:57:15;99261.22;;;5.51;100.00
70930;BME280;58588;48.102;19.682;2023-04-19T04:00:17;99256.22;;;5.56;100.00
70930;BME280;58588;48.102;19.682;2023-04-19T04:03:19;99255.91;;;5.59;100.00
70930;BME280;58588;48.102;19.682;2023-04-19T04:06:21;99257.06;;;5.57;100.00
70930;BME280;58588;48.102;19.682;2023-04-19T04:09:23;99247.97;;;5.76;100.00
70930;BME280;58588;48.102;19.682;2023-04-19T04:12:27;99251.81;;;5.81;100.00
70930;BME280;58588;48.102;19.682;2023-04-19T04:15:29;99241.34;;;5.88;100.00
70930;BME280;58588;48.102;19.682;2023-04-19T04:18:31;99245.50;;;5.90;100.00
70930;BME280;58588;48.102;19.682;2023-04-19T04:21:33;99236.03;;;5.96;100.00
70930;BME280;58588;48.102;19.682;2023-04-19T04:24:37;99242.75;;;6.00;100.00
70930;BME280;58588;48.102;19.682;2023-04-19T04:27:42;99238.59;;;6.22;100.00
70930;BME280;58588;48.102;19.682;2023-04-19T04:30:44;99243.97;;;6.38;100.00
70930;BME280;58588;48.102;19.682;2023-04-19T04:33:46;99239.47;;;6.47;100.00
70930;BME280;58588;48.102;19.682;2023-04-19T04:36:48;99232.78;;;6.51;100.00
70930;BME280;58588;48.102;19.682;2023-04-19T04:39:50;99244.50;;;6.58;100.00
70930;BME280;58588;48.102;19.682;2023-04-19T04:42:54;99242.16;;;6.63;100.00
70930;BME280;58588;48.102;19.682;2023-04-19T04:45:56;99238.50;;;6.73;100.00
70930;BME280;58588;48.102;19.682;2023-04-19T04:48:58;99237.66;;;6.96;100.00
70930;BME280;58588;48.102;19.682;2023-04-19T04:52:00;99229.88;;;7.18;100.00
70930;BME280;58588;48.102;19.682;2023-04-19T04:55:02;99222.66;;;7.35;100.00
70930;BME280;58588;48.102;19.682;2023-04-19T04:58:05;99227.28;;;7.57;100.00
70930;BME280;58588;48.102;19.682;2023-04-19T05:01:07;99218.50;;;7.71;100.00
70930;BME280;58588;48.102;19.682;2023-04-19T05:04:09;99227.81;;;7.84;100.00
70930;BME280;58588;48.102;19.682;2023-04-19T05:07:11;99231.97;;;7.94;100.00
70930;BME280;58588;48.102;19.682;2023-04-19T05:10:13;99226.91;;;7.99;100.00
70930;BME280;58588;48.102;19.682;2023-04-19T05:13:17;99225.97;;;8.15;100.00
70930;BME280;58588;48.102;19.682;2023-04-19T05:16:19;99226.91;;;8.30;100.00
70930;BME280;58588;48.102;19.682;2023-04-19T05:19:21;99224.38;;;8.37;100.00
70930;BME280;58588;48.102;19.682;2023-04-19T05:22:23;99233.50;;;8.51;100.00
70930;BME280;58588;48.102;19.682;2023-04-19T05:25:26;99231.78;;;8.58;100.00
70930;BME280;58588;48.102;19.682;2023-04-19T05:28:29;99224.38;;;8.60;100.00
70930;BME280;58588;48.102;19.682;2023-04-19T05:31:32;99229.13;;;8.73;100.00
70930;BME280;58588;48.102;19.682;2023-04-19T05:34:35;99234.91;;;8.84;100.00
70930;BME280;58588;48.102;19.682;2023-04-19T05:37:37;99231.16;;;9.08;100.00
70930;BME280;58588;48.102;19.682;2023-04-19T05:40:41;99231.75;;;9.19;100.00
70930;BME280;58588;48.102;19.682;2023-04-19T05:43:44;99230.09;;;9.32;100.00
70930;BME280;58588;48.102;19.682;2023-04-19T05:46:46;99227.13;;;9.57;100.00
70930;BME280;58588;48.102;19.682;2023-04-19T05:49:48;99227.13;;;9.72;100.00
70930;BME280;58588;48.102;19.682;2023-04-19T05:52:50;99229.25;;;9.76;100.00
70930;BME280;58588;48.102;19.682;2023-04-19T05:55:52;99218.56;;;9.98;100.00
70930;BME280;58588;48.102;19.682;2023-04-19T05:58:56;99221.50;;;10.03;100.00
70930;BME280;58588;48.102;19.682;2023-04-19T06:01:59;99219.78;;;10.31;100.00
70930;BME280;58588;48.102;19.682;2023-04-19T06:05:01;99223.28;;;10.68;100.00
70930;BME280;58588;48.102;19.682;2023-04-19T06:08:04;99210.47;;;10.77;100.00
70930;BME280;58588;48.102;19.682;2023-04-19T06:11:06;99216.81;;;10.90;100.00
70930;BME280;58588;48.102;19.682;2023-04-19T06:14:10;99214.47;;;11.09;100.00
70930;BME280;58588;48.102;19.682;2023-04-19T06:17:13;99209.28;;;11.35;100.00
70930;BME280;58588;48.102;19.682;2023-04-19T06:20:16;99213.88;;;11.41;100.00
70930;BME280;58588;48.102;19.682;2023-04-19T06:23:19;99205.19;;;11.46;100.00
70930;BME280;58588;48.102;19.682;2023-04-19T06:26:21;99200.72;;;11.66;100.00
70930;BME280;58588;48.102;19.682;2023-04-19T06:29:25;99204.19;;;11.88;100.00
70930;BME280;58588;48.102;19.682;2023-04-19T06:32:27;99195.38;;;12.27;100.00
70930;BME280;58588;48.102;19.682;2023-04-19T06:35:30;99200.19;;;12.52;100.00
70930;BME280;58588;48.102;19.682;2023-04-19T06:38:32;99194.19;;;12.56;100.00
70930;BME280;58588;48.102;19.682;2023-04-19T06:41:34;99201.47;;;12.82;100.00
70930;BME280;58588;48.102;19.682;2023-04-19T06:44:37;99197.31;;;13.00;98.22
70930;BME280;58588;48.102;19.682;2023-04-19T06:47:39;99191.09;;;12.86;93.53
70930;BME280;58588;48.102;19.682;2023-04-19T06:50:42;99189.41;;;13.25;97.30
70930;BME280;58588;48.102;19.682;2023-04-19T06:53:44;99195.59;;;13.58;80.21
70930;BME280;58588;48.102;19.682;2023-04-19T06:56:47;99186.53;;;13.84;82.50
70930;BME280;58588;48.102;19.682;2023-04-19T06:59:52;99191.75;;;13.86;83.09
70930;BME280;58588;48.102;19.682;2023-04-19T07:02:55;99181.91;;;13.98;83.95
70930;BME280;58588;48.102;19.682;2023-04-19T07:05:59;99184.38;;;14.06;79.45
70930;BME280;58588;48.102;19.682;2023-04-19T07:09:01;99182.22;;;14.15;82.85
70930;BME280;58588;48.102;19.682;2023-04-19T07:12:04;99177.59;;;14.29;77.59
70930;BME280;58588;48.102;19.682;2023-04-19T07:15:08;99179.34;;;14.80;73.00
70930;BME280;58588;48.102;19.682;2023-04-19T07:18:11;99182.44;;;14.83;73.48
70930;BME280;58588;48.102;19.682;2023-04-19T07:21:15;99179.81;;;15.20;75.39
70930;BME280;58588;48.102;19.682;2023-04-19T07:24:17;99184.91;;;15.10;74.60
70930;BME280;58588;48.102;19.682;2023-04-19T07:27:19;99179.66;;;15.15;65.85
70930;BME280;58588;48.102;19.682;2023-04-19T07:30:23;99179.25;;;15.36;64.74
70930;BME280;58588;48.102;19.682;2023-04-19T07:33:25;99173.13;;;15.41;64.52
70930;BME280;58588;48.102;19.682;2023-04-19T07:36:27;99177.00;;;15.51;69.28
70930;BME280;58588;48.102;19.682;2023-04-19T07:39:30;99176.78;;;16.08;64.98
70930;BME280;58588;48.102;19.682;2023-04-19T07:42:32;99171.44;;;16.13;62.05
70930;BME280;58588;48.102;19.682;2023-04-19T07:45:36;99171.47;;;15.95;58.58
70930;BME280;58588;48.102;19.682;2023-04-19T07:48:38;99173.09;;;16.02;59.25
70930;BME280;58588;48.102;19.682;2023-04-19T07:51:40;99174.22;;;16.25;58.30
70930;BME280;58588;48.102;19.682;2023-04-19T07:54:42;99166.88;;;16.14;58.43
70930;BME280;58588;48.102;19.682;2023-04-19T07:57:44;99166.25;;;16.42;60.40
70930;BME280;58588;48.102;19.682;2023-04-19T08:00:49;99176.38;;;16.65;59.65
70930;BME280;58588;48.102;19.682;2023-04-19T08:03:51;99158.69;;;16.44;57.70
70930;BME280;58588;48.102;19.682;2023-04-19T08:06:53;99167.22;;;16.89;58.09
70930;BME280;58588;48.102;19.682;2023-04-19T08:09:55;99163.06;;;16.75;57.36
70930;BME280;58588;48.102;19.682;2023-04-19T08:12:57;99160.69;;;16.90;53.03
70930;BME280;58588;48.102;19.682;2023-04-19T08:16:01;99161.66;;;17.07;56.33
70930;BME280;58588;48.102;19.682;2023-04-19T08:19:03;99154.94;;;17.10;56.00
70930;BME280;58588;48.102;19.682;2023-04-19T08:22:05;99152.50;;;16.78;54.87
70930;BME280;58588;48.102;19.682;2023-04-19T08:25:08;99152.78;;;17.24;55.84
70930;BME280;58588;48.102;19.682;2023-04-19T08:28:10;99146.03;;;17.15;60.78
70930;BME280;58588;48.102;19.682;2023-04-19T08:31:14;99149.59;;;17.03;55.72
70930;BME280;58588;48.102;19.682;2023-04-19T08:34:16;99141.06;;;16.88;55.42
70930;BME280;58588;48.102;19.682;2023-04-19T08:37:18;99139.41;;;17.10;61.58
70930;BME280;58588;48.102;19.682;2023-04-19T08:40:20;99139.41;;;16.87;55.31
70930;BME280;58588;48.102;19.682;2023-04-19T08:43:23;99136.41;;;17.59;54.81
70930;BME280;58588;48.102;19.682;2023-04-19T08:46:30;99128.28;;;17.87;51.32
70930;BME280;58588;48.102;19.682;2023-04-19T08:49:34;99131.75;;;18.11;52.74
70930;BME280;58588;48.102;19.682;2023-04-19T08:52:37;99126.44;;;17.76;54.92
70930;BME280;58588;48.102;19.682;2023-04-19T08:55:41;99125.22;;;18.58;58.27
70930;BME280;58588;48.102;19.682;2023-04-19T08:58:43;99124.38;;;18.57;52.67
70930;BME280;58588;48.102;19.682;2023-04-19T09:01:46;99117.50;;;18.83;52.38
70930;BME280;58588;48.102;19.682;2023-04-19T09:04:48;99118.34;;;19.06;52.03
70930;BME280;58588;48.102;19.682;2023-04-19T09:07:50;99113.84;;;19.33;45.82
70930;BME280;58588;48.102;19.682;2023-04-19T09:10:53;99109.78;;;19.36;51.24
70930;BME280;58588;48.102;19.682;2023-04-19T09:14:06;99109.03;;;19.84;48.59
70930;BME280;58588;48.102;19.682;2023-04-19T09:17:13;99108.91;;;19.96;46.30
70930;BME280;58588;48.102;19.682;2023-04-19T09:20:15;99099.88;;;19.95;43.60
70930;BME280;58588;48.102;19.682;2023-04-19T09:23:17;99101.00;;;20.26;40.30
70930;BME280;58588;48.102;19.682;2023-04-19T09:26:20;99095.84;;;20.03;38.83
70930;BME280;58588;48.102;19.682;2023-04-19T09:29:22;99091.38;;;19.92;42.22
70930;BME280;58588;48.102;19.682;2023-04-19T09:32:26;99096.59;;;19.71;41.64
70930;BME280;58588;48.102;19.682;2023-04-19T09:35:39;99102.13;;;20.52;42.60
70930;BME280;58588;48.102;19.682;2023-04-19T09:38:48;99093.09;;;20.89;39.60
70930;BME280;58588;48.102;19.682;2023-04-19T09:41:51;99091.22;;;20.57;36.19
70930;BME280;58588;48.102;19.682;2023-04-19T09:44:56;99097.63;;;21.05;38.57
70930;BME280;58588;48.102;19.682;2023-04-19T09:48:04;99082.97;;;20.52;36.59
70930;BME280;58588;48.102;19.682;2023-04-19T09:51:06;99088.50;;;20.03;42.35
70930;BME280;58588;48.102;19.682;2023-04-19T09:54:11;99086.94;;;20.13;38.02
70930;BME280;58588;48.102;19.682;2023-04-19T09:57:13;99089.03;;;20.60;44.26
70930;BME280;58588;48.102;19.682;2023-04-19T10:00:16;99077.59;;;20.68;38.48
70930;BME280;58588;48.102;19.682;2023-04-19T10:03:19;99081.13;;;21.00;38.57
70930;BME280;58588;48.102;19.682;2023-04-19T10:06:23;99077.09;;;20.71;37.85
70930;BME280;58588;48.102;19.682;2023-04-19T10:09:26;99080.47;;;20.51;41.27
70930;BME280;58588;48.102;19.682;2023-04-19T10:12:30;99080.22;;;20.52;39.92
70930;BME280;58588;48.102;19.682;2023-04-19T10:15:35;99077.63;;;20.73;40.39
70930;BME280;58588;48.102;19.682;2023-04-19T10:18:38;99073.28;;;20.77;40.79
70930;BME280;58588;48.102;19.682;2023-04-19T10:21:41;99075.63;;;20.58;40.20
70930;BME280;58588;48.102;19.682;2023-04-19T10:25:06;99063.50;;;20.22;40.19
70930;BME280;58588;48.102;19.682;2023-04-19T10:28:09;99065.75;;;20.30;41.52
70930;BME280;58588;48.102;19.682;2023-04-19T10:31:11;99066.03;;;20.28;38.64
70930;BME280;58588;48.102;19.682;2023-04-19T10:34:38;99053.06;;;19.92;37.89
70930;BME280;58588;48.102;19.682;2023-04-19T10:37:40;99062.94;;;19.93;41.05
70930;BME280;58588;48.102;19.682;2023-04-19T10:41:03;99066.25;;;20.27;36.48
70930;BME280;58588;48.102;19.682;2023-04-19T10:44:11;99061.56;;;20.49;35.01
70930;BME280;58588;48.102;19.682;2023-04-19T10:47:13;99057.50;;;20.52;37.81
70930;BME280;58588;48.102;19.682;2023-04-19T10:50:58;99054.53;;;20.58;40.55
70930;BME280;58588;48.102;19.682;2023-04-19T10:54:01;99056.53;;;20.41;38.23
70930;BME280;58588;48.102;19.682;2023-04-19T10:57:05;99053.06;;;20.51;37.71
70930;BME280;58588;48.102;19.682;2023-04-19T11:00:20;99055.53;;;20.47;41.50
70930;BME280;58588;48.102;19.682;2023-04-19T11:03:52;99051.41;;;20.82;36.76
70930;BME280;58588;48.102;19.682;2023-04-19T11:07:03;99045.56;;;21.16;33.94
70930;BME280;58588;48.102;19.682;2023-04-19T11:10:06;99057.50;;;20.89;34.56
70930;BME280;58588;48.102;19.682;2023-04-19T11:13:08;99050.34;;;20.88;36.54
70930;BME280;58588;48.102;19.682;2023-04-19T11:16:11;99048.72;;;20.92;33.93
70930;BME280;58588;48.102;19.682;2023-04-19T11:19:14;99045.78;;;21.04;36.23
70930;BME280;58588;48.102;19.682;2023-04-19T11:22:17;99050.78;;;21.12;38.37
70930;BME280;58588;48.102;19.682;2023-04-19T11:25:20;99049.72;;;21.18;41.75
70930;BME280;58588;48.102;19.682;2023-04-19T11:28:23;99048.84;;;21.13;37.74
70930;BME280;58588;48.102;19.682;2023-04-19T11:31:25;99047.22;;;21.11;35.98
70930;BME280;58588;48.102;19.682;2023-04-19T11:34:27;99046.19;;;20.80;39.00
70930;BME280;58588;48.102;19.682;2023-04-19T11:37:33;99048.41;;;20.83;40.08
70930;BME280;58588;48.102;19.682;2023-04-19T11:40:35;99046.00;;;20.55;38.26
70930;BME280;58588;48.102;19.682;2023-04-19T11:43:37;99048.00;;;20.65;36.10
70930;BME280;58588;48.102;19.682;2023-04-19T11:46:40;99047.09;;;20.54;38.71
70930;BME280;58588;48.102;19.682;2023-04-19T11:49:43;99034.81;;;20.62;37.97
70930;BME280;58588;48.102;19.682;2023-04-19T11:52:49;99034.84;;;21.09;37.18
70930;BME280;58588;48.102;19.682;2023-04-19T11:55:53;99039.63;;;20.87;38.76
70930;BME280;58588;48.102;19.682;2023-04-19T11:58:56;99031.34;;;20.44;43.38
70930;BME280;58588;48.102;19.682;2023-04-19T12:02:08;99035.78;;;20.82;38.80
70930;BME280;58588;48.102;19.682;2023-04-19T12:05:12;99034.47;;;19.94;40.40
70930;BME280;58588;48.102;19.682;2023-04-19T12:08:16;99027.13;;;20.58;41.47
70930;BME280;58588;48.102;19.682;2023-04-19T12:11:20;99021.06;;;20.51;43.22
70930;BME280;58588;48.102;19.682;2023-04-19T12:14:23;99027.81;;;20.81;41.82
70930;BME280;58588;48.102;19.682;2023-04-19T12:17:26;99027.28;;;20.79;39.94
70930;BME280;58588;48.102;19.682;2023-04-19T12:20:32;99027.47;;;20.67;41.03
70930;BME280;58588;48.102;19.682;2023-04-19T12:23:36;99023.19;;;20.81;41.75
70930;BME280;58588;48.102;19.682;2023-04-19T12:26:51;99021.69;;;20.31;38.21
70930;BME280;58588;48.102;19.682;2023-04-19T12:29:54;99015.59;;;20.24;43.06
70930;BME280;58588;48.102;19.682;2023-04-19T12:32:57;99022.13;;;20.50;42.25
70930;BME280;58588;48.102;19.682;2023-04-19T12:35:59;99011.25;;;20.61;38.59
70930;BME280;58588;48.102;19.682;2023-04-19T12:39:02;99015.75;;;20.77;39.33
70930;BME280;58588;48.102;19.682;2023-04-19T12:42:05;99006.50;;;20.88;37.71
70930;BME280;58588;48.102;19.682;2023-04-19T12:45:09;99011.75;;;20.95;36.99
70930;BME280;58588;48.102;19.682;2023-04-19T12:48:11;99013.28;;;20.43;37.94
70930;BME280;58588;48.102;19.682;2023-04-19T12:51:13;99013.63;;;20.47;38.75
70930;BME280;58588;48.102;19.682;2023-04-19T12:54:16;99006.59;;;19.70;39.04
70930;BME280;58588;48.102;19.682;2023-04-19T12:57:19;99005.31;;;19.56;40.30
70930;BME280;58588;48.102;19.682;2023-04-19T13:00:21;99000.44;;;19.85;41.51
70930;BME280;58588;48.102;19.682;2023-04-19T13:03:24;99006.19;;;19.83;41.94
70930;BME280;58588;48.102;19.682;2023-04-19T13:06:26;99003.72;;;19.82;41.32
70930;BME280;58588;48.102;19.682;2023-04-19T13:09:29;99006.78;;;19.90;40.45
70930;BME280;58588;48.102;19.682;2023-04-19T13:12:31;99000.22;;;19.86;40.94
70930;BME280;58588;48.102;19.682;2023-04-19T13:15:33;99007.00;;;20.11;41.90
70930;BME280;58588;48.102;19.682;2023-04-19T13:18:35;99007.78;;;20.06;41.58
70930;BME280;58588;48.102;19.682;2023-04-19T13:21:37;99007.81;;;19.84;45.19
70930;BME280;58588;48.102;19.682;2023-04-19T13:24:41;98999.22;;;19.48;44.41
70930;BME280;58588;48.102;19.682;2023-04-19T13:27:43;99013.66;;;19.22;45.09
70930;BME280;58588;48.102;19.682;2023-04-19T13:30:46;99010.16;;;19.48;41.99
70930;BME280;58588;48.102;19.682;2023-04-19T13:33:48;99009.38;;;19.75;45.93
70930;BME280;58588;48.102;19.682;2023-04-19T13:36:50;99017.22;;;19.93;44.29
70930;BME280;58588;48.102;19.682;2023-04-19T13:39:54;99001.44;;;19.73;41.63
70930;BME280;58588;48.102;19.682;2023-04-19T13:42:56;99007.47;;;19.75;42.42
70930;BME280;58588;48.102;19.682;2023-04-19T13:45:58;99008.44;;;20.18;39.10
70930;BME280;58588;48.102;19.682;2023-04-19T13:49:00;99011.19;;;20.50;41.43
70930;BME280;58588;48.102;19.682;2023-04-19T13:52:03;99005.84;;;20.39;41.17
70930;BME280;58588;48.102;19.682;2023-04-19T13:55:07;99008.63;;;20.44;37.57
70930;BME280;58588;48.102;19.682;2023-04-19T13:58:09;99007.66;;;20.55;39.28
70930;BME280;58588;48.102;19.682;2023-04-19T14:01:11;99009.09;;;20.68;38.03
70930;BME280;58588;48.102;19.682;2023-04-19T14:04:13;99000.00;;;20.57;42.18
70930;BME280;58588;48.102;19.682;2023-04-19T14:07:15;99005.53;;;20.67;39.89
70930;BME280;58588;48.102;19.682;2023-04-19T14:10:19;99005.53;;;21.15;41.76
70930;BME280;58588;48.102;19.682;2023-04-19T14:13:21;98993.97;;;21.60;37.97
70930;BME280;58588;48.102;19.682;2023-04-19T14:16:23;98997.44;;;21.30;42.16
70930;BME280;58588;48.102;19.682;2023-04-19T14:19:25;98995.06;;;21.64;41.11
70930;BME280;58588;48.102;19.682;2023-04-19T14:22:27;98998.13;;;21.93;36.24
70930;BME280;58588;48.102;19.682;2023-04-19T14:25:30;99000.34;;;22.06;36.14
70930;BME280;58588;48.102;19.682;2023-04-19T14:28:33;98998.69;;;21.90;40.43
70930;BME280;58588;48.102;19.682;2023-04-19T14:31:35;99000.31;;;21.76;35.71
70930;BME280;58588;48.102;19.682;2023-04-19T14:34:37;98999.84;;;20.74;35.47
70930;BME280;58588;48.102;19.682;2023-04-19T14:37:39;99002.56;;;20.74;35.36
70930;BME280;58588;48.102;19.682;2023-04-19T14:40:43;99001.28;;;20.87;37.14
70930;BME280;58588;48.102;19.682;2023-04-19T14:43:45;99004.56;;;20.83;36.70
70930;BME280;58588;48.102;19.682;2023-04-19T14:46:47;98993.78;;;20.67;36.00
70930;BME280;58588;48.102;19.682;2023-04-19T14:49:49;99001.47;;;20.38;37.54
70930;BME280;58588;48.102;19.682;2023-04-19T14:52:51;99003.22;;;20.49;37.82
70930;BME280;58588;48.102;19.682;2023-04-19T14:55:55;99004.78;;;20.40;36.36
70930;BME280;58588;48.102;19.682;2023-04-19T14:58:57;99008.97;;;20.90;38.46
70930;BME280;58588;48.102;19.682;2023-04-19T15:01:59;99013.72;;;21.04;38.41
70930;BME280;58588;48.102;19.682;2023-04-19T15:05:02;99009.59;;;21.02;40.43
70930;BME280;58588;48.102;19.682;2023-04-19T15:08:04;99010.78;;;20.74;41.29
70930;BME280;58588;48.102;19.682;2023-04-19T15:11:08;99012.63;;;20.58;41.47
70930;BME280;58588;48.102;19.682;2023-04-19T15:14:10;99008.75;;;20.22;41.93
70930;BME280;58588;48.102;19.682;2023-04-19T15:17:12;99015.97;;;20.06;43.40
70930;BME280;58588;48.102;19.682;2023-04-19T15:20:14;99024.69;;;20.30;41.86
70930;BME280;58588;48.102;19.682;2023-04-19T15:23:16;99021.69;;;20.64;42.16
70930;BME280;58588;48.102;19.682;2023-04-19T15:26:19;99023.91;;;20.67;39.75
70930;BME280;58588;48.102;19.682;2023-04-19T15:29:23;99022.22;;;21.03;38.11
70930;BME280;58588;48.102;19.682;2023-04-19T15:32:25;99013.41;;;21.58;37.47
70930;BME280;58588;48.102;19.682;2023-04-19T15:35:29;99019.56;;;21.91;37.13
70930;BME280;58588;48.102;19.682;2023-04-19T15:38:32;99028.63;;;22.02;34.93
70930;BME280;58588;48.102;19.682;2023-04-19T15:41:35;99036.19;;;21.01;41.42
70930;BME280;58588;48.102;19.682;2023-04-19T15:44:37;99049.16;;;19.00;52.34
70930;BME280;58588;48.102;19.682;2023-04-19T15:47:39;99058.53;;;18.37;55.17
70930;BME280;58588;48.102;19.682;2023-04-19T15:50:41;99056.94;;;19.52;53.94
70930;BME280;58588;48.102;19.682;2023-04-19T15:53:43;99059.91;;;19.67;54.64
70930;BME280;58588;48.102;19.682;2023-04-19T15:56:47;99064.09;;;20.02;53.17
70930;BME280;58588;48.102;19.682;2023-04-19T15:59:49;99058.84;;;19.30;55.06